createdAt,value
2019-03-29T00:00:09.210Z,13.24
2019-03-29T00:01:15.009Z,13.25
2019-03-29T00:02:19.257Z,13.23
2019-03-29T00:03:23.448Z,13.24
2019-03-29T00:04:27.698Z,13.18
2019-03-29T00:05:31.906Z,13.15
2019-03-29T00:06:37.275Z,13.16
2019-03-29T00:07:42.211Z,13.18
2019-03-29T00:08:47.513Z,13.21
2019-03-29T00:09:51.744Z,13.24
2019-03-29T00:10:55.953Z,13.23
2019-03-29T00:12:00.136Z,13.25
2019-03-29T00:13:04.317Z,13.17
2019-03-29T00:14:09.584Z,13.15
2019-03-29T00:15:14.120Z,13.14
2019-03-29T00:16:18.308Z,13.13
2019-03-29T00:17:22.556Z,13.11
2019-03-29T00:18:26.758Z,13.09
2019-03-29T00:19:31.210Z,13.08
2019-03-29T00:20:35.495Z,13.07
2019-03-29T00:21:39.669Z,13.02
2019-03-29T00:22:44.133Z,12.99
2019-03-29T00:23:51.146Z,13.00
2019-03-29T00:24:55.351Z,13.02
2019-03-29T00:25:59.668Z,13.03
2019-03-29T00:27:03.964Z,13.02
2019-03-29T00:28:08.477Z,13.00
2019-03-29T00:29:12.774Z,13.02
2019-03-29T00:30:16.959Z,12.99
2019-03-29T00:31:21.311Z,12.96
2019-03-29T00:32:25.506Z,12.97
2019-03-29T00:33:29.735Z,13.01
2019-03-29T00:34:33.987Z,13.02
2019-03-29T00:35:38.162Z,13.02
2019-03-29T00:36:42.513Z,13.01
2019-03-29T00:37:53.422Z,13.03
2019-03-29T00:38:53.272Z,13.04
2019-03-29T00:39:57.449Z,13.04
2019-03-29T00:41:01.629Z,13.05
2019-03-29T00:42:05.851Z,13.03
2019-03-29T00:43:10.054Z,13.05
2019-03-29T00:44:14.250Z,13.04
2019-03-29T00:45:19.131Z,13.02
2019-03-29T00:46:23.481Z,12.96
2019-03-29T00:47:27.735Z,12.99
2019-03-29T00:48:35.497Z,12.99
2019-03-29T00:49:38.749Z,13.01
2019-03-29T00:50:43.030Z,13.01
2019-03-29T00:51:47.226Z,12.96
2019-03-29T00:52:51.529Z,12.96
2019-03-29T00:53:55.772Z,13.04
2019-03-29T00:54:59.954Z,13.04
2019-03-29T00:56:04.518Z,13.03
2019-03-29T00:57:08.709Z,12.98
2019-03-29T00:58:12.965Z,13.06
2019-03-29T00:59:17.185Z,13.07
2019-03-29T01:00:21.517Z,13.09
2019-03-29T01:01:26.120Z,13.09
2019-03-29T01:02:30.829Z,13.10
2019-03-29T01:03:35.011Z,13.11
2019-03-29T01:04:39.218Z,13.12
2019-03-29T01:05:43.445Z,13.13
2019-03-29T01:06:47.674Z,13.13
2019-03-29T01:08:06.781Z,13.14
2019-03-29T01:08:58.859Z,13.13
2019-03-29T01:10:03.624Z,13.13
2019-03-29T01:11:07.874Z,13.11
2019-03-29T01:12:12.120Z,13.11
2019-03-29T01:13:16.300Z,13.10
2019-03-29T01:14:20.479Z,13.07
2019-03-29T01:15:24.695Z,13.08
2019-03-29T01:16:28.954Z,13.05
2019-03-29T01:17:33.590Z,13.03
2019-03-29T01:18:38.029Z,13.00
2019-03-29T01:19:42.521Z,12.97
2019-03-29T01:20:47.970Z,12.95
2019-03-29T01:21:52.261Z,12.92
2019-03-29T01:22:56.496Z,12.88
2019-03-29T01:24:01.518Z,12.88
2019-03-29T01:25:08.084Z,12.88
2019-03-29T01:26:12.433Z,12.85
2019-03-29T01:27:16.614Z,12.84
2019-03-29T01:28:20.831Z,12.80
2019-03-29T01:29:25.092Z,12.80
2019-03-29T01:30:29.337Z,12.80
2019-03-29T01:31:34.585Z,12.79
2019-03-29T01:32:39.105Z,12.77
2019-03-29T01:33:43.321Z,12.77
2019-03-29T01:34:47.565Z,12.77
2019-03-29T01:35:51.741Z,12.77
2019-03-29T01:36:56.086Z,12.77
2019-03-29T01:38:00.267Z,12.76
2019-03-29T01:39:06.101Z,12.76
2019-03-29T01:40:10.373Z,12.72
2019-03-29T01:41:14.642Z,12.67
2019-03-29T01:42:19.005Z,12.65
2019-03-29T01:43:23.312Z,12.64
2019-03-29T01:44:28.242Z,12.63
2019-03-29T01:45:33.500Z,12.62
2019-03-29T01:46:38.065Z,12.60
2019-03-29T01:47:42.537Z,12.60
2019-03-29T01:48:46.740Z,12.59
2019-03-29T01:49:51.310Z,12.55
2019-03-29T01:50:55.533Z,12.56
2019-03-29T01:51:59.685Z,12.56
2019-03-29T01:53:04.306Z,12.56
2019-03-29T01:54:08.496Z,12.52
2019-03-29T01:55:13.205Z,12.48
2019-03-29T01:56:17.404Z,12.46
2019-03-29T01:57:21.572Z,12.37
2019-03-29T01:58:25.750Z,12.34
2019-03-29T01:59:29.990Z,12.26
2019-03-29T02:00:36.107Z,12.24
2019-03-29T02:01:40.392Z,12.22
2019-03-29T02:02:44.579Z,12.18
2019-03-29T02:03:48.764Z,12.16
2019-03-29T02:04:52.945Z,12.18
2019-03-29T02:05:57.418Z,12.15
2019-03-29T02:07:01.605Z,12.16
2019-03-29T02:08:05.809Z,12.17
2019-03-29T02:09:10.019Z,12.17
2019-03-29T02:10:14.220Z,12.15
2019-03-29T02:11:18.467Z,12.14
2019-03-29T02:12:22.655Z,12.14
2019-03-29T02:13:26.969Z,12.13
2019-03-29T02:14:31.144Z,12.10
2019-03-29T02:15:35.419Z,12.10
2019-03-29T02:16:39.800Z,12.10
2019-03-29T02:17:44.055Z,12.08
2019-03-29T02:18:48.244Z,12.10
2019-03-29T02:19:52.428Z,12.12
2019-03-29T02:20:57.625Z,12.11
2019-03-29T02:22:01.855Z,11.96
2019-03-29T02:23:06.025Z,12.05
2019-03-29T02:24:10.251Z,12.05
2019-03-29T02:25:15.976Z,12.06
2019-03-29T02:26:20.364Z,12.05
2019-03-29T02:27:24.657Z,12.02
2019-03-29T02:28:28.843Z,11.93
2019-03-29T02:29:33.170Z,11.91
2019-03-29T02:30:37.426Z,11.90
2019-03-29T02:31:42.411Z,11.88
2019-03-29T02:32:47.167Z,11.89
2019-03-29T02:33:51.353Z,11.91
2019-03-29T02:34:55.532Z,11.90
2019-03-29T02:36:01.330Z,11.91
2019-03-29T02:37:05.514Z,11.90
2019-03-29T02:38:09.790Z,11.88
2019-03-29T02:39:14.034Z,11.91
2019-03-29T02:40:18.368Z,11.94
2019-03-29T02:41:22.623Z,11.95
2019-03-29T02:42:26.845Z,11.96
2019-03-29T02:43:31.543Z,11.94
2019-03-29T02:44:35.721Z,11.94
2019-03-29T02:45:40.013Z,11.92
2019-03-29T02:46:44.283Z,11.92
2019-03-29T02:47:48.886Z,11.88
2019-03-29T02:48:53.411Z,11.89
2019-03-29T02:49:57.641Z,11.89
2019-03-29T02:51:01.807Z,11.87
2019-03-29T02:52:05.983Z,11.87
2019-03-29T02:53:10.206Z,11.87
2019-03-29T02:54:14.520Z,11.85
2019-03-29T02:55:18.731Z,11.83
2019-03-29T02:56:23.066Z,11.80
2019-03-29T02:57:27.277Z,11.78
2019-03-29T02:58:32.624Z,11.71
2019-03-29T02:59:36.844Z,11.68
2019-03-29T03:00:41.018Z,11.67
2019-03-29T03:01:45.197Z,11.66
2019-03-29T03:02:49.515Z,11.61
2019-03-29T03:03:53.731Z,11.60
2019-03-29T03:04:57.934Z,11.61
2019-03-29T03:06:02.112Z,11.63
2019-03-29T03:07:06.410Z,11.64
2019-03-29T03:08:10.632Z,11.65
2019-03-29T03:09:15.067Z,11.59
2019-03-29T03:10:19.255Z,11.58
2019-03-29T03:11:23.435Z,11.58
2019-03-29T03:12:27.713Z,11.57
2019-03-29T03:13:31.960Z,11.57
2019-03-29T03:14:36.137Z,11.56
2019-03-29T03:15:41.711Z,11.54
2019-03-29T03:16:45.888Z,11.48
2019-03-29T03:17:50.086Z,11.45
2019-03-29T03:18:54.275Z,11.44
2019-03-29T03:19:58.533Z,11.44
2019-03-29T03:21:02.793Z,11.42
2019-03-29T03:22:06.960Z,11.45
2019-03-29T03:23:11.159Z,11.42
2019-03-29T03:24:15.402Z,11.43
2019-03-29T03:25:19.951Z,11.39
2019-03-29T03:26:24.129Z,11.39
2019-03-29T03:27:28.397Z,11.42
2019-03-29T03:28:32.592Z,11.38
2019-03-29T03:29:36.757Z,11.39
2019-03-29T03:30:40.960Z,11.36
2019-03-29T03:31:45.150Z,11.39
2019-03-29T03:32:50.610Z,11.39
2019-03-29T03:33:54.993Z,11.38
2019-03-29T03:34:59.191Z,11.38
2019-03-29T03:36:04.424Z,11.35
2019-03-29T03:37:08.611Z,11.34
2019-03-29T03:38:12.884Z,11.35
2019-03-29T03:39:30.540Z,11.25
2019-03-29T03:40:22.998Z,11.23
2019-03-29T03:41:27.323Z,11.22
2019-03-29T03:42:31.586Z,11.21
2019-03-29T03:43:35.792Z,11.16
2019-03-29T03:44:40.088Z,11.20
2019-03-29T03:45:44.268Z,11.24
2019-03-29T03:46:48.511Z,11.27
2019-03-29T03:47:53.387Z,11.26
2019-03-29T03:48:57.558Z,11.31
2019-03-29T03:50:02.149Z,11.33
2019-03-29T03:51:06.638Z,11.36
2019-03-29T03:52:10.836Z,11.38
2019-03-29T03:53:15.098Z,11.36
2019-03-29T03:54:19.271Z,11.35
2019-03-29T03:55:23.477Z,11.36
2019-03-29T03:56:28.392Z,11.38
2019-03-29T03:57:33.184Z,11.40
2019-03-29T03:58:37.409Z,11.36
2019-03-29T03:59:41.913Z,11.38
2019-03-29T04:00:53.389Z,11.38
2019-03-29T04:01:57.627Z,11.36
2019-03-29T04:03:01.847Z,11.36
2019-03-29T04:04:06.019Z,11.39
2019-03-29T04:05:10.253Z,11.39
2019-03-29T04:06:14.820Z,11.30
2019-03-29T04:07:19.066Z,11.40
2019-03-29T04:08:23.282Z,11.40
2019-03-29T04:09:27.463Z,11.40
2019-03-29T04:10:31.647Z,11.39
2019-03-29T04:11:35.891Z,11.38
2019-03-29T04:12:41.157Z,11.39
2019-03-29T04:13:45.786Z,11.36
2019-03-29T04:14:50.038Z,11.36
2019-03-29T04:15:54.214Z,11.38
2019-03-29T04:16:58.419Z,11.35
2019-03-29T04:18:02.619Z,11.38
2019-03-29T04:19:06.828Z,11.37
2019-03-29T04:20:11.052Z,11.39
2019-03-29T04:21:15.233Z,11.39
2019-03-29T04:22:19.412Z,11.33
2019-03-29T04:23:23.656Z,11.33
2019-03-29T04:24:27.929Z,11.34
2019-03-29T04:25:32.135Z,11.35
2019-03-29T04:26:36.312Z,11.38
2019-03-29T04:27:40.971Z,11.35
2019-03-29T04:28:56.969Z,11.35
2019-03-29T04:29:51.074Z,11.36
2019-03-29T04:30:55.342Z,11.35
2019-03-29T04:31:59.508Z,11.31
2019-03-29T04:33:04.282Z,11.26
2019-03-29T04:34:08.483Z,11.24
2019-03-29T04:35:12.643Z,11.22
2019-03-29T04:36:16.918Z,11.20
2019-03-29T04:37:21.097Z,11.15
2019-03-29T04:38:25.322Z,11.16
2019-03-29T04:39:29.574Z,11.18
2019-03-29T04:40:33.809Z,11.22
2019-03-29T04:41:37.989Z,11.25
2019-03-29T04:42:42.245Z,11.26
2019-03-29T04:43:46.419Z,11.18
2019-03-29T04:44:51.674Z,11.17
2019-03-29T04:45:55.879Z,11.15
2019-03-29T04:47:00.179Z,11.15
2019-03-29T04:48:06.616Z,11.16
2019-03-29T04:49:11.038Z,11.20
2019-03-29T04:50:15.968Z,11.19
2019-03-29T04:51:20.150Z,11.19
2019-03-29T04:52:24.355Z,11.19
2019-03-29T04:53:28.730Z,11.18
2019-03-29T04:54:32.958Z,11.17
2019-03-29T04:55:37.134Z,11.19
2019-03-29T04:56:41.316Z,11.19
2019-03-29T04:57:45.567Z,11.19
2019-03-29T04:58:49.750Z,11.17
2019-03-29T04:59:55.900Z,11.15
2019-03-29T05:01:00.007Z,11.14
2019-03-29T05:02:04.774Z,11.13
2019-03-29T05:03:09.020Z,11.05
2019-03-29T05:04:13.163Z,11.04
2019-03-29T05:05:17.488Z,11.03
2019-03-29T05:06:21.649Z,11.02
2019-03-29T05:07:25.898Z,11.00
2019-03-29T05:08:30.181Z,11.01
2019-03-29T05:09:34.346Z,10.99
2019-03-29T05:10:39.539Z,10.99
2019-03-29T05:11:43.729Z,10.97
2019-03-29T05:12:47.963Z,10.95
2019-03-29T05:13:52.180Z,10.94
2019-03-29T05:14:56.454Z,10.95
2019-03-29T05:16:00.675Z,10.94
2019-03-29T05:17:04.850Z,10.93
2019-03-29T05:18:09.032Z,10.87
2019-03-29T05:19:13.282Z,10.85
2019-03-29T05:20:17.489Z,10.83
2019-03-29T05:21:21.774Z,10.76
2019-03-29T05:22:26.107Z,10.73
2019-03-29T05:23:30.358Z,10.71
2019-03-29T05:24:34.540Z,10.67
2019-03-29T05:25:38.723Z,10.60
2019-03-29T05:26:43.122Z,10.54
2019-03-29T05:27:48.399Z,10.53
2019-03-29T05:28:52.619Z,10.52
2019-03-29T05:29:56.916Z,10.55
2019-03-29T05:31:01.134Z,10.55
2019-03-29T05:32:05.375Z,10.56
2019-03-29T05:33:09.599Z,10.53
2019-03-29T05:34:13.851Z,10.53
2019-03-29T05:35:18.063Z,10.55
2019-03-29T05:36:22.246Z,10.54
2019-03-29T05:37:26.502Z,10.56
2019-03-29T05:38:30.755Z,10.57
2019-03-29T05:39:34.975Z,10.57
2019-03-29T05:40:39.163Z,10.60
2019-03-29T05:41:43.389Z,10.62
2019-03-29T05:42:48.007Z,10.63
2019-03-29T05:43:52.186Z,10.65
2019-03-29T05:44:56.375Z,10.67
2019-03-29T05:46:00.602Z,10.64
2019-03-29T05:47:04.785Z,10.67
2019-03-29T05:48:10.268Z,10.67
2019-03-29T05:49:14.553Z,10.70
2019-03-29T05:50:18.735Z,10.69
2019-03-29T05:51:22.920Z,10.71
2019-03-29T05:52:27.266Z,10.74
2019-03-29T05:53:31.583Z,10.75
2019-03-29T05:54:35.939Z,10.76
2019-03-29T05:55:40.181Z,10.79
2019-03-29T05:56:44.432Z,10.82
2019-03-29T05:57:48.619Z,10.82
2019-03-29T05:58:52.859Z,10.81
2019-03-29T05:59:57.041Z,10.82
2019-03-29T06:01:01.226Z,10.80
2019-03-29T06:02:05.426Z,10.78
2019-03-29T06:03:10.371Z,10.81
2019-03-29T06:04:16.063Z,10.85
2019-03-29T06:05:20.740Z,10.89
2019-03-29T06:06:24.939Z,10.90
2019-03-29T06:07:29.218Z,10.94
2019-03-29T06:08:33.443Z,10.99
2019-03-29T06:09:37.655Z,11.05
2019-03-29T06:10:48.855Z,11.08
2019-03-29T06:11:48.123Z,11.13
2019-03-29T06:12:53.277Z,11.18
2019-03-29T06:13:57.603Z,11.24
2019-03-29T06:15:01.795Z,11.16
2019-03-29T06:16:06.336Z,11.23
2019-03-29T06:17:11.169Z,11.19
2019-03-29T06:18:15.352Z,11.22
2019-03-29T06:19:19.538Z,11.20
2019-03-29T06:20:23.741Z,11.34
2019-03-29T06:21:28.833Z,11.41
2019-03-29T06:22:33.006Z,11.48
2019-03-29T06:23:37.263Z,11.54
2019-03-29T06:24:41.483Z,11.61
2019-03-29T06:25:45.680Z,11.65
2019-03-29T06:26:49.987Z,11.70
2019-03-29T06:27:54.295Z,11.76
2019-03-29T06:28:58.477Z,11.81
2019-03-29T06:30:03.029Z,11.85
2019-03-29T06:31:07.211Z,11.91
2019-03-29T06:32:11.499Z,11.98
2019-03-29T06:33:15.682Z,12.02
2019-03-29T06:34:19.864Z,12.05
2019-03-29T06:35:24.083Z,12.10
2019-03-29T06:36:28.333Z,12.17
2019-03-29T06:37:32.835Z,12.20
2019-03-29T06:38:37.015Z,12.28
2019-03-29T06:39:41.206Z,12.33
2019-03-29T06:40:45.392Z,12.40
2019-03-29T06:41:50.646Z,12.46
2019-03-29T06:42:54.859Z,12.48
2019-03-29T06:43:59.045Z,12.51
2019-03-29T06:45:03.227Z,12.57
2019-03-29T06:46:07.483Z,12.63
2019-03-29T06:47:11.670Z,12.71
2019-03-29T06:48:16.878Z,12.77
2019-03-29T06:49:21.064Z,12.83
2019-03-29T06:50:25.240Z,12.88
2019-03-29T06:51:29.522Z,12.95
2019-03-29T06:52:33.683Z,12.96
2019-03-29T06:53:38.993Z,13.02
2019-03-29T06:54:43.175Z,13.03
2019-03-29T06:55:47.512Z,13.07
2019-03-29T06:56:51.696Z,13.04
2019-03-29T06:57:55.935Z,13.07
2019-03-29T06:59:00.328Z,13.11
2019-03-29T07:00:05.224Z,13.16
2019-03-29T07:01:09.374Z,13.25
2019-03-29T07:02:13.619Z,13.32
2019-03-29T07:03:17.802Z,13.40
2019-03-29T07:04:22.018Z,13.42
2019-03-29T07:05:26.210Z,13.48
2019-03-29T07:06:30.720Z,13.57
2019-03-29T07:07:35.061Z,13.65
2019-03-29T07:08:39.306Z,13.74
2019-03-29T07:09:43.593Z,13.83
2019-03-29T07:10:47.775Z,13.93
2019-03-29T07:11:51.959Z,14.01
2019-03-29T07:12:56.703Z,14.11
2019-03-29T07:14:00.846Z,14.19
2019-03-29T07:15:06.397Z,14.26
2019-03-29T07:16:11.546Z,14.34
2019-03-29T07:17:15.731Z,14.41
2019-03-29T07:18:19.977Z,14.46
2019-03-29T07:19:24.256Z,14.53
2019-03-29T07:20:28.522Z,14.62
2019-03-29T07:21:32.777Z,14.62
2019-03-29T07:22:36.961Z,14.75
2019-03-29T07:23:41.158Z,14.82
2019-03-29T07:24:45.338Z,14.89
2019-03-29T07:25:50.179Z,14.97
2019-03-29T07:26:54.454Z,15.03
2019-03-29T07:27:58.634Z,15.08
2019-03-29T07:29:02.820Z,15.10
2019-03-29T07:30:07.138Z,15.19
2019-03-29T07:31:11.545Z,15.27
2019-03-29T07:32:15.928Z,15.36
2019-03-29T07:33:20.178Z,15.43
2019-03-29T07:34:24.359Z,15.48
2019-03-29T07:35:28.546Z,15.54
2019-03-29T07:36:32.802Z,15.60
2019-03-29T07:37:37.015Z,15.67
2019-03-29T07:38:41.223Z,15.73
2019-03-29T07:39:45.403Z,15.79
2019-03-29T07:40:49.582Z,15.85
2019-03-29T07:41:53.851Z,15.92
2019-03-29T07:42:58.146Z,15.99
2019-03-29T07:44:02.527Z,16.03
2019-03-29T07:45:10.023Z,16.08
2019-03-29T07:46:13.021Z,16.17
2019-03-29T07:47:17.279Z,16.22
2019-03-29T07:48:21.514Z,16.25
2019-03-29T07:49:25.773Z,16.34
2019-03-29T07:50:29.942Z,16.41
2019-03-29T07:51:34.123Z,16.38
2019-03-29T07:52:38.313Z,16.48
2019-03-29T07:53:44.955Z,16.53
2019-03-29T07:54:48.410Z,16.59
2019-03-29T07:55:52.590Z,16.68
2019-03-29T07:56:56.773Z,16.78
2019-03-29T07:58:01.023Z,16.85
2019-03-29T07:59:05.242Z,16.92
2019-03-29T08:00:09.490Z,16.99
2019-03-29T08:01:13.742Z,17.02
2019-03-29T08:02:17.923Z,17.08
2019-03-29T08:03:23.499Z,17.17
2019-03-29T08:04:29.046Z,17.26
2019-03-29T08:05:35.293Z,17.33
2019-03-29T08:06:39.264Z,17.41
2019-03-29T08:07:43.586Z,17.48
2019-03-29T08:08:47.838Z,17.57
2019-03-29T08:09:52.066Z,17.65
2019-03-29T08:10:57.215Z,17.72
2019-03-29T08:12:01.395Z,17.80
2019-03-29T08:13:06.542Z,17.89
2019-03-29T08:14:10.749Z,17.96
2019-03-29T08:15:14.967Z,17.99
2019-03-29T08:16:19.297Z,18.06
2019-03-29T08:17:23.499Z,18.12
2019-03-29T08:18:27.660Z,18.22
2019-03-29T08:19:31.842Z,18.31
2019-03-29T08:20:41.677Z,18.38
2019-03-29T08:21:41.998Z,18.45
2019-03-29T08:22:47.220Z,18.49
2019-03-29T08:23:51.403Z,18.54
2019-03-29T08:24:58.983Z,18.58
2019-03-29T08:26:01.463Z,18.68
2019-03-29T08:27:05.714Z,18.80
2019-03-29T08:28:09.900Z,18.89
2019-03-29T08:29:14.067Z,18.96
2019-03-29T08:30:18.242Z,19.06
2019-03-29T08:31:22.472Z,19.14
2019-03-29T08:32:26.641Z,19.28
2019-03-29T08:33:30.840Z,19.38
2019-03-29T08:34:35.977Z,19.46
2019-03-29T08:35:40.271Z,19.52
2019-03-29T08:36:44.444Z,19.60
2019-03-29T08:37:48.700Z,19.67
2019-03-29T08:38:52.989Z,19.75
2019-03-29T08:39:57.205Z,19.81
2019-03-29T08:41:01.379Z,19.88
2019-03-29T08:42:05.553Z,19.88
2019-03-29T08:43:09.738Z,19.94
2019-03-29T08:44:14.062Z,20.03
2019-03-29T08:45:18.240Z,20.04
2019-03-29T08:46:22.424Z,20.04
2019-03-29T08:47:26.765Z,20.13
2019-03-29T08:48:30.936Z,20.23
2019-03-29T08:49:36.273Z,20.26
2019-03-29T08:50:40.494Z,20.17
2019-03-29T08:51:44.709Z,20.29
2019-03-29T08:52:49.138Z,20.37
2019-03-29T08:53:53.313Z,20.42
2019-03-29T08:54:57.490Z,20.53
2019-03-29T08:56:01.669Z,20.62
2019-03-29T08:57:05.869Z,20.70
2019-03-29T08:58:10.071Z,20.86
2019-03-29T08:59:17.327Z,21.00
2019-03-29T09:00:30.088Z,21.06
2019-03-29T09:01:34.338Z,21.15
2019-03-29T09:02:38.553Z,21.29
2019-03-29T09:03:43.006Z,21.36
2019-03-29T09:04:47.221Z,21.45
2019-03-29T09:05:51.487Z,21.62
2019-03-29T09:06:55.661Z,21.70
2019-03-29T09:07:59.878Z,21.81
2019-03-29T09:09:05.792Z,21.82
2019-03-29T09:10:13.229Z,21.92
2019-03-29T09:11:17.502Z,22.07
2019-03-29T09:12:21.669Z,22.22
2019-03-29T09:13:25.933Z,22.33
2019-03-29T09:14:31.550Z,22.41
2019-03-29T09:15:37.038Z,22.56
2019-03-29T09:16:41.298Z,22.71
2019-03-29T09:17:45.473Z,22.79
2019-03-29T09:18:49.683Z,22.85
2019-03-29T09:19:53.956Z,22.97
2019-03-29T09:20:58.201Z,23.11
2019-03-29T09:22:02.466Z,23.23
2019-03-29T09:23:10.155Z,23.40
2019-03-29T09:24:21.689Z,23.52
2019-03-29T09:25:21.035Z,23.78
2019-03-29T09:26:24.500Z,23.96
2019-03-29T09:27:31.821Z,24.15
2019-03-29T09:28:34.599Z,24.30
2019-03-29T09:29:38.862Z,24.43
2019-03-29T09:30:43.037Z,24.60
2019-03-29T09:31:47.249Z,24.81
2019-03-29T09:32:51.867Z,24.88
2019-03-29T09:33:58.532Z,24.94
2019-03-29T09:35:02.150Z,25.11
2019-03-29T09:36:06.294Z,25.26
2019-03-29T09:37:11.514Z,25.39
2019-03-29T09:38:15.797Z,25.52
2019-03-29T09:39:20.011Z,25.79
2019-03-29T09:40:24.203Z,25.92
2019-03-29T09:41:28.451Z,25.96
2019-03-29T09:42:32.650Z,26.04
2019-03-29T09:43:36.828Z,26.11
2019-03-29T09:44:41.053Z,26.18
2019-03-29T09:45:45.225Z,26.34
2019-03-29T09:46:49.478Z,26.63
2019-03-29T09:47:55.860Z,26.95
2019-03-29T09:48:59.645Z,27.25
2019-03-29T09:50:06.170Z,27.53
2019-03-29T09:51:10.345Z,27.64
2019-03-29T09:52:14.566Z,27.74
2019-03-29T09:53:18.815Z,27.93
2019-03-29T09:54:22.993Z,28.14
2019-03-29T09:55:27.169Z,28.21
2019-03-29T09:56:38.849Z,28.29
2019-03-29T09:57:38.357Z,28.60
2019-03-29T09:58:45.089Z,28.82
2019-03-29T09:59:48.726Z,29.16
2019-03-29T10:00:53.025Z,29.25
2019-03-29T10:01:57.202Z,29.51
2019-03-29T10:03:01.421Z,29.75
2019-03-29T10:04:05.602Z,29.65
2019-03-29T10:05:10.868Z,29.33
2019-03-29T10:06:16.084Z,29.16
2019-03-29T10:07:20.225Z,29.14
2019-03-29T10:08:24.449Z,29.37
2019-03-29T10:09:28.697Z,29.63
2019-03-29T10:10:34.652Z,29.61
2019-03-29T10:11:38.858Z,29.55
2019-03-29T10:12:44.071Z,29.71
2019-03-29T10:13:48.545Z,29.79
2019-03-29T10:14:52.717Z,29.80
2019-03-29T10:15:56.889Z,29.80
2019-03-29T10:17:01.075Z,30.09
2019-03-29T10:18:05.321Z,30.10
2019-03-29T10:19:09.537Z,30.26
2019-03-29T10:20:13.708Z,30.22
2019-03-29T10:21:17.896Z,30.05
2019-03-29T10:22:22.064Z,30.09
2019-03-29T10:23:26.276Z,29.64
2019-03-29T10:24:30.670Z,29.21
2019-03-29T10:25:34.955Z,28.88
2019-03-29T10:26:39.135Z,28.69
2019-03-29T10:27:43.370Z,28.56
2019-03-29T10:28:47.705Z,28.23
2019-03-29T10:29:51.912Z,28.00
2019-03-29T10:30:56.261Z,27.71
2019-03-29T10:32:00.441Z,27.42
2019-03-29T10:33:04.607Z,27.20
2019-03-29T10:34:08.824Z,26.88
2019-03-29T10:35:13.039Z,26.65
2019-03-29T10:36:17.340Z,26.65
2019-03-29T10:37:21.511Z,26.84
2019-03-29T10:38:25.736Z,27.10
2019-03-29T10:39:29.905Z,27.37
2019-03-29T10:40:34.344Z,27.19
2019-03-29T10:41:38.606Z,27.18
2019-03-29T10:42:56.761Z,27.15
2019-03-29T10:43:48.717Z,27.31
2019-03-29T10:44:52.883Z,27.19
2019-03-29T10:45:57.236Z,27.13
2019-03-29T10:47:01.404Z,27.23
2019-03-29T10:48:05.752Z,27.18
2019-03-29T10:49:09.941Z,27.32
2019-03-29T10:50:14.112Z,27.35
2019-03-29T10:51:18.321Z,27.37
2019-03-29T10:52:22.493Z,27.51
2019-03-29T10:53:28.710Z,27.64
2019-03-29T10:54:32.611Z,27.75
2019-03-29T10:55:37.677Z,27.65
2019-03-29T10:56:42.023Z,27.17
2019-03-29T10:57:46.320Z,26.93
2019-03-29T10:58:51.565Z,26.76
2019-03-29T10:59:55.805Z,26.42
2019-03-29T11:00:59.981Z,26.19
2019-03-29T11:02:04.257Z,26.01
2019-03-29T11:03:08.780Z,25.73
2019-03-29T11:04:12.940Z,25.38
2019-03-29T11:05:17.164Z,25.13
2019-03-29T11:06:21.297Z,25.13
2019-03-29T11:07:25.547Z,25.06
2019-03-29T11:08:29.698Z,24.93
2019-03-29T11:09:36.901Z,24.68
2019-03-29T11:10:41.062Z,24.64
2019-03-29T11:11:45.339Z,24.63
2019-03-29T11:12:49.517Z,24.61
2019-03-29T11:13:56.505Z,24.49
2019-03-29T11:14:59.702Z,24.35
2019-03-29T11:16:03.973Z,24.32
2019-03-29T11:17:08.180Z,24.23
2019-03-29T11:18:12.315Z,24.31
2019-03-29T11:19:16.516Z,24.34
2019-03-29T11:20:21.728Z,24.31
2019-03-29T11:21:26.280Z,24.28
2019-03-29T11:22:30.445Z,24.26
2019-03-29T11:23:34.687Z,24.21
2019-03-29T11:24:38.959Z,24.16
2019-03-29T11:25:43.128Z,24.14
2019-03-29T11:26:47.396Z,24.11
2019-03-29T11:27:51.568Z,24.05
2019-03-29T11:28:55.767Z,24.05
2019-03-29T11:29:59.937Z,23.99
2019-03-29T11:31:04.591Z,23.98
2019-03-29T11:32:08.792Z,23.88
2019-03-29T11:33:12.997Z,23.89
2019-03-29T11:34:17.203Z,23.81
2019-03-29T11:35:21.339Z,23.81
2019-03-29T11:36:25.545Z,23.79
2019-03-29T11:37:30.168Z,23.71
2019-03-29T11:38:34.384Z,23.56
2019-03-29T11:39:38.572Z,23.48
2019-03-29T11:40:42.741Z,23.43
2019-03-29T11:41:46.914Z,23.46
2019-03-29T11:42:51.116Z,23.37
2019-03-29T11:43:55.381Z,23.30
2019-03-29T11:44:59.615Z,23.34
2019-03-29T11:46:04.786Z,23.38
2019-03-29T11:47:09.001Z,23.39
2019-03-29T11:48:13.750Z,23.40
2019-03-29T11:49:17.934Z,23.40
2019-03-29T11:50:22.176Z,23.42
2019-03-29T11:51:26.447Z,23.44
2019-03-29T11:52:33.764Z,23.40
2019-03-29T11:53:36.520Z,23.24
2019-03-29T11:54:40.741Z,23.26
2019-03-29T11:55:44.911Z,23.24
2019-03-29T11:56:49.149Z,23.19
2019-03-29T11:57:55.825Z,23.18
2019-03-29T11:58:59.720Z,23.26
2019-03-29T12:00:07.392Z,23.31
2019-03-29T12:01:11.616Z,23.39
2019-03-29T12:02:30.194Z,23.51
2019-03-29T12:03:21.647Z,23.60
2019-03-29T12:04:25.863Z,23.54
2019-03-29T12:05:30.028Z,23.56
2019-03-29T12:06:34.268Z,23.66
2019-03-29T12:07:38.517Z,23.72
2019-03-29T12:08:42.701Z,23.81
2019-03-29T12:09:46.928Z,23.84
2019-03-29T12:10:51.109Z,23.91
2019-03-29T12:11:55.281Z,24.00
2019-03-29T12:12:59.460Z,23.98
2019-03-29T12:14:05.178Z,24.02
2019-03-29T12:15:09.475Z,24.05
2019-03-29T12:16:13.812Z,24.18
2019-03-29T12:17:18.063Z,24.29
2019-03-29T12:18:22.246Z,24.42
2019-03-29T12:19:26.445Z,24.42
2019-03-29T12:20:30.647Z,24.50
2019-03-29T12:21:34.818Z,24.53
2019-03-29T12:22:39.075Z,24.48
2019-03-29T12:23:43.252Z,24.44
2019-03-29T12:24:47.544Z,24.40
2019-03-29T12:25:51.714Z,24.46
2019-03-29T12:26:55.881Z,24.40
2019-03-29T12:28:00.054Z,24.38
2019-03-29T12:29:04.360Z,24.42
2019-03-29T12:30:08.795Z,24.43
2019-03-29T12:31:13.019Z,24.36
2019-03-29T12:32:17.251Z,24.28
2019-03-29T12:33:21.444Z,24.31
2019-03-29T12:34:25.721Z,24.32
2019-03-29T12:35:29.893Z,24.21
2019-03-29T12:36:34.063Z,24.13
2019-03-29T12:37:38.265Z,24.10
2019-03-29T12:38:42.464Z,24.12
2019-03-29T12:39:46.689Z,23.99
2019-03-29T12:40:51.824Z,23.95
2019-03-29T12:41:56.079Z,23.95
2019-03-29T12:43:00.280Z,24.01
2019-03-29T12:44:04.883Z,24.04
2019-03-29T12:45:09.141Z,24.06
2019-03-29T12:46:13.389Z,24.04
2019-03-29T12:47:17.625Z,24.03
2019-03-29T12:48:22.180Z,24.06
2019-03-29T12:49:27.919Z,24.03
2019-03-29T12:50:32.102Z,24.07
2019-03-29T12:51:36.266Z,24.13
2019-03-29T12:52:40.516Z,24.05
2019-03-29T12:53:44.721Z,24.11
2019-03-29T12:54:48.892Z,24.10
2019-03-29T12:55:53.070Z,24.08
2019-03-29T12:56:57.236Z,24.13
2019-03-29T12:58:01.439Z,24.17
2019-03-29T12:59:05.602Z,24.12
2019-03-29T13:00:09.796Z,24.14
2019-03-29T13:01:13.960Z,24.18
2019-03-29T13:02:18.153Z,24.16
2019-03-29T13:03:22.337Z,24.22
2019-03-29T13:04:26.509Z,24.26
2019-03-29T13:05:30.692Z,24.27
2019-03-29T13:06:34.877Z,24.33
2019-03-29T13:07:39.116Z,24.35
2019-03-29T13:08:43.318Z,24.45
2019-03-29T13:09:47.572Z,24.50
2019-03-29T13:10:52.012Z,24.52
2019-03-29T13:11:56.205Z,24.55
2019-03-29T13:13:00.998Z,24.50
2019-03-29T13:14:10.662Z,24.59
2019-03-29T13:15:12.541Z,24.66
2019-03-29T13:16:16.713Z,24.65
2019-03-29T13:17:20.956Z,24.66
2019-03-29T13:18:25.130Z,24.70
2019-03-29T13:19:29.724Z,24.74
2019-03-29T13:20:33.935Z,24.76
2019-03-29T13:21:38.933Z,24.73
2019-03-29T13:22:44.352Z,24.76
2019-03-29T13:23:49.671Z,24.79
2019-03-29T13:24:53.902Z,24.83
2019-03-29T13:25:58.104Z,24.86
2019-03-29T13:27:02.271Z,24.87
2019-03-29T13:28:07.874Z,24.91
2019-03-29T13:29:12.114Z,24.94
2019-03-29T13:30:17.303Z,24.95
2019-03-29T13:31:21.541Z,24.99
2019-03-29T13:32:25.734Z,25.03
2019-03-29T13:33:29.952Z,25.01
2019-03-29T13:34:34.134Z,25.04
2019-03-29T13:35:38.350Z,25.08
2019-03-29T13:36:42.526Z,25.13
2019-03-29T13:37:46.749Z,25.18
2019-03-29T13:38:50.916Z,25.12
2019-03-29T13:39:55.083Z,25.11
2019-03-29T13:40:59.293Z,25.11
2019-03-29T13:42:04.217Z,25.09
2019-03-29T13:43:08.403Z,25.11
2019-03-29T13:44:23.157Z,25.14
2019-03-29T13:45:18.433Z,25.10
2019-03-29T13:46:22.801Z,25.09
2019-03-29T13:47:28.613Z,25.03
2019-03-29T13:48:32.863Z,25.05
2019-03-29T13:49:37.044Z,25.09